This is the latest recevied weather packets stored in our database for station/object KK7HEZ. If no packets are shown the sender has not sent any weather packets the latest 1 day(s).
| Time | Temp. | Humidity | Pressure | Rain* | Wind** | Luminosity | Snow |
|---|---|---|---|---|---|---|---|
| 1778021510 | 17.22° C | 79% | 1016.8 hPa | 0 mm | 0 m/s | 69 W/m² | - |
| 1778021205 | 17.22° C | 77% | 1016.7 hPa | 0 mm | 1.34 m/s, 262° | 59 W/m² | - |
| 1778020904 | 17.22° C | 77% | 1016.9 hPa | 0 mm | 0 m/s | 66 W/m² | - |
| 1778020601 | 16.67° C | 79% | 1016.7 hPa | 0 mm | 0.89 m/s, 213° | 65 W/m² | - |
| 1778020297 | 16.67° C | 79% | 1016.8 hPa | 0 mm | 0.45 m/s, 124° | 90 W/m² | - |
| 1778019993 | 17.22° C | 77% | 1016.8 hPa | 0 mm | 0.45 m/s, 101° | 79 W/m² | - |
| 1778019689 | 16.67° C | 77% | 1016.9 hPa | 0 mm | 0.45 m/s, 228° | 86 W/m² | - |
| 1778019386 | 17.22° C | 78% | 1016.7 hPa | 0 mm | 0 m/s | 113 W/m² | - |
| 1778019083 | 16.67° C | 78% | 1016.9 hPa | 0 mm | 1.34 m/s, 221° | 126 W/m² | - |
| 1778018780 | 18.89° C | 71% | 1016.9 hPa | 0 mm | 0.45 m/s, 169° | 73 W/m² | - |
| 1778018478 | 17.78° C | 75% | 1017.2 hPa | 0 mm | 0.45 m/s, 153° | 76 W/m² | - |
| 1778018175 | 16.67° C | 79% | 1017.2 hPa | 0 mm | 0.89 m/s, 184° | 122 W/m² | - |
| 1778017873 | 16.67° C | 78% | 1017.1 hPa | 0 mm | 0 m/s | 93 W/m² | - |
| 1778017571 | 16.11° C | 80% | 1017.3 hPa | 0 mm | 0.45 m/s, 169° | 133 W/m² | - |
| 1778017268 | 16.11° C | 80% | 1017.3 hPa | 0 mm | 0 m/s | 139 W/m² | - |
| 1778016966 | 16.67° C | 77% | 1017.2 hPa | 0 mm | 0.89 m/s, 218° | 153 W/m² | - |
| 1778016662 | 17.22° C | 75% | 1017.3 hPa | 0 mm | 0.89 m/s, 183° | 146 W/m² | - |
| 1778016358 | 16.67° C | 76% | 1017.3 hPa | 0 mm | 0 m/s | 159 W/m² | - |
| 1778016065 | 17.22° C | 75% | 1017.2 hPa | 0 mm | 0.45 m/s, 161° | 168 W/m² | - |
| 1778015752 | 16.67° C | 77% | 1017.2 hPa | 0 mm | 0 m/s | 151 W/m² | - |
| 1778015449 | 16.67° C | 78% | 1017.3 hPa | 0 mm | 0.89 m/s, 197° | 142 W/m² | - |
| 1778015146 | 16.67° C | 77% | 1017.2 hPa | 0 mm | 0.45 m/s, 184° | 161 W/m² | - |
| 1778014843 | 16.67° C | 77% | 1017.2 hPa | 0 mm | 0.89 m/s, 185° | 154 W/m² | - |
| 1778014541 | 16.67° C | 77% | 1017.2 hPa | 0 mm | 1.34 m/s, 216° | 151 W/m² | - |
| 1778014238 | 16.11° C | 79% | 1017.2 hPa | 0 mm | 0 m/s | 129 W/m² | - |
* Rain latest hour (hover to see other rain measurements)
** Current wind speed in m/s (hover to see current wind gust speed)